Time;durP1;ratioP1;P1;durP2;ratioP2;P2;SDS_P1;SDS_P2;PMS_P1;PMS_P2;Temp;Humidity;BMP_temperature;BMP_pressure;BME280_temperature;BME280_humidity;BME280_pressure;Samples;Min_cycle;Max_cycle;Signal;HPM_P1;HPM_P2
2023/06/11 00:00:09;;;;;;;;;;;;;;;30.39;33.62;93947.38;5006289;28;7042;-56
2023/06/11 00:02:56;;;;;;;;;;;;;;;30.42;34.00;93947.03;5010601;28;7530;-56
2023/06/11 00:05:30;;;;;;;;;;;;;;;30.41;33.42;93945.53;5014349;28;7068;-56
2023/06/11 00:08:14;;;;;;;;;;;;;;;30.43;33.29;93951.28;5024487;28;9096;-56
2023/06/11 00:10:42;;;;;;;;;;;;;;;30.42;33.53;93949.81;5009703;28;7631;-56
2023/06/11 00:13:28;;;;;;;;;;;;;;;30.42;33.37;93949.06;5013025;28;7282;-56
2023/06/11 00:16:12;;;;;;;;;;;;;;;30.41;33.54;93953.13;5009701;28;9312;-56
2023/06/11 00:18:45;;;;;;;;;;;;;;;30.39;33.21;93953.69;5027528;28;7027;-56
2023/06/11 00:21:21;;;;;;;;;;;;;;;30.36;32.96;93943.66;5023458;28;8794;-56
2023/06/11 00:23:51;;;;;;;;;;;;;;;30.35;32.84;93947.00;5007160;28;7069;-56
2023/06/11 00:26:38;;;;;;;;;;;;;;;30.34;33.30;93957.38;5008091;28;8808;-56
2023/06/11 00:29:09;;;;;;;;;;;;;;;30.34;33.23;93960.13;5010333;28;7096;-56
2023/06/11 00:31:56;;;;;;;;;;;;;;;30.32;33.43;93954.41;5024931;28;7045;-56
2023/06/11 00:34:39;;;;;;;;;;;;;;;30.30;32.99;93954.19;5005740;28;7046;-56
2023/06/11 00:37:13;;;;;;;;;;;;;;;30.31;32.86;93961.25;5021448;28;7363;-56
2023/06/11 00:39:39;;;;;;;;;;;;;;;30.30;33.16;93956.22;5005526;28;7349;-56
2023/06/11 00:42:10;;;;;;;;;;;;;;;30.27;32.92;93958.09;5018487;28;7173;-56
2023/06/11 00:44:36;;;;;;;;;;;;;;;30.28;33.47;93962.31;5005524;28;7582;-56
2023/06/11 00:47:36;;;;;;;;;;;;;;;30.31;33.53;93960.50;5013935;28;6985;-56
2023/06/11 00:50:10;;;;;;;;;;;;;;;30.28;32.79;93962.31;4970573;28;7003;-56
2023/06/11 00:52:40;;;;;;;;;;;;;;;30.27;32.79;93958.09;4969019;28;7458;-56
2023/06/11 00:55:12;;;;;;;;;;;;;;;30.28;32.53;93962.31;4970001;28;7033;-56
2023/06/11 00:57:50;;;;;;;;;;;;;;;30.32;32.98;93959.22;4955507;28;7283;-56
2023/06/11 01:00:35;;;;;;;;;;;;;;;30.33;32.27;93969.03;4971706;28;7205;-56
2023/06/11 01:03:18;;;;;;;;;;;;;;;30.30;32.69;93959.75;4972490;28;8225;-56
2023/06/11 01:06:02;;;;;;;;;;;;;;;30.31;32.66;93964.03;4970481;28;7461;-56
2023/06/11 01:08:53;;;;;;;;;;;;;;;30.30;33.28;93962.50;4969148;28;8870;-57
2023/06/11 01:11:29;;;;;;;;;;;;;;;30.29;32.41;93961.03;4954729;28;7179;-56
2023/06/11 01:13:55;;;;;;;;;;;;;;;30.30;32.70;93968.06;4970782;28;7046;-56
2023/06/11 01:16:53;;;;;;;;;;;;;;;30.29;32.12;93960.28;4952113;28;7278;-57
2023/06/11 01:19:27;;;;;;;;;;;;;;;30.28;31.95;93967.88;4951802;28;8880;-56
2023/06/11 01:21:59;;;;;;;;;;;;;;;30.27;32.32;93966.41;4966253;28;7072;-56
2023/06/11 01:24:44;;;;;;;;;;;;;;;30.26;32.89;93966.94;4950131;28;7641;-56
2023/06/11 01:27:50;;;;;;;;;;;;;;;30.26;33.26;93972.50;4995330;28;7497;-56
2023/06/11 01:30:40;;;;;;;;;;;;;;;30.27;33.20;93968.44;5018804;28;7432;-56
2023/06/11 01:33:53;;;;;;;;;;;;;;;30.26;32.14;93966.94;5005946;28;7051;-56
2023/06/11 01:36:34;;;;;;;;;;;;;;;30.24;32.31;93964.72;4971849;28;7388;-56
2023/06/11 01:39:04;;;;;;;;;;;;;;;30.22;32.84;93961.00;4967269;28;7238;-56
2023/06/11 01:41:32;;;;;;;;;;;;;;;30.21;32.89;93959.56;4984374;28;7164;-56
2023/06/11 01:43:59;;;;;;;;;;;;;;;30.19;32.55;93962.84;4965950;28;9648;-56
2023/06/11 01:46:28;;;;;;;;;;;;;;;30.19;32.87;93967.69;4978077;28;7350;-56
2023/06/11 01:48:56;;;;;;;;;;;;;;;30.16;32.73;93966.75;4952277;28;7181;-56
2023/06/11 01:51:23;;;;;;;;;;;;;;;30.17;32.51;93957.13;4969179;28;7054;-56
2023/06/11 01:54:02;;;;;;;;;;;;;;;30.17;32.92;93961.91;4969145;28;9096;-56
2023/06/11 01:56:47;;;;;;;;;;;;;;;30.16;33.09;93960.47;4972395;28;7247;-56
2023/06/11 01:59:17;;;;;;;;;;;;;;;30.15;33.21;93959.72;4969659;28;7062;-56
2023/06/11 02:02:19;;;;;;;;;;;;;;;30.15;32.63;93962.47;4979784;28;7270;-56
2023/06/11 02:04:46;;;;;;;;;;;;;;;30.15;32.77;93970.06;4970967;28;9297;-56
2023/06/11 02:07:22;;;;;;;;;;;;;;;30.14;32.68;93968.59;4972325;28;7044;-56
2023/06/11 02:09:49;;;;;;;;;;;;;;;30.13;31.98;93965.06;4973474;28;7614;-56
2023/06/11 02:12:36;;;;;;;;;;;;;;;30.12;32.23;93960.84;4977108;28;7252;-56
2023/06/11 02:15:30;;;;;;;;;;;;;;;30.12;32.87;93966.38;5021311;28;9441;-56
2023/06/11 02:17:57;;;;;;;;;;;;;;;30.07;32.31;93961.72;5007424;28;9118;-56
2023/06/11 02:21:10;;;;;;;;;;;;;;;30.08;32.37;93962.47;5007213;28;7031;-56
2023/06/11 02:23:36;;;;;;;;;;;;;;;30.07;32.79;93955.44;5009738;28;9020;-56
2023/06/11 02:26:12;;;;;;;;;;;;;;;30.06;33.04;93959.53;5008712;28;7370;-56
2023/06/11 02:28:53;;;;;;;;;;;;;;;30.05;33.37;93969.88;5004907;28;7069;-56
2023/06/11 02:31:32;;;;;;;;;;;;;;;30.06;33.19;93963.00;5008185;28;7287;-56
2023/06/11 02:34:12;;;;;;;;;;;;;;;30.06;32.27;93968.56;5010320;28;7029;-56
2023/06/11 02:36:42;;;;;;;;;;;;;;;30.05;33.07;93969.88;4988284;28;9160;-56
2023/06/11 02:39:18;;;;;;;;;;;;;;;30.06;32.40;93960.25;4985328;28;8938;-56
2023/06/11 02:42:02;;;;;;;;;;;;;;;30.04;32.50;93964.84;4990891;28;7050;-56
2023/06/11 02:44:31;;;;;;;;;;;;;;;30.03;32.02;93958.59;5004051;28;7156;-56
2023/06/11 02:47:08;;;;;;;;;;;;;;;30.03;32.67;93966.16;5007325;28;9129;-56
2023/06/11 02:49:34;;;;;;;;;;;;;;;30.05;32.95;93975.41;4993019;28;7037;-56
2023/06/11 02:52:09;;;;;;;;;;;;;;;30.05;32.26;93972.63;5009090;28;7177;-57
2023/06/11 02:54:42;;;;;;;;;;;;;;;30.04;32.40;93968.38;4998428;28;7234;-56
2023/06/11 02:57:08;;;;;;;;;;;;;;;30.03;32.01;93978.00;5025011;28;8824;-56
2023/06/11 02:59:43;;;;;;;;;;;;;;;30.03;33.17;93980.03;5008100;28;8967;-56
2023/06/11 03:02:11;;;;;;;;;;;;;;;30.02;32.51;93973.72;5021696;28;7878;-56
2023/06/11 03:04:43;;;;;;;;;;;;;;;29.99;32.24;93977.63;5008534;28;7096;-56
2023/06/11 03:07:09;;;;;;;;;;;;;;;30.02;32.75;93986.84;5006574;28;7282;-56
2023/06/11 03:09:50;;;;;;;;;;;;;;;30.00;32.48;93984.63;5006262;28;9749;-56
2023/06/11 03:12:45;;;;;;;;;;;;;;;29.99;32.32;93988.72;5011707;28;8280;-56
2023/06/11 03:15:15;;;;;;;;;;;;;;;29.98;32.05;93981.66;5005453;28;8742;-56
2023/06/11 03:17:51;;;;;;;;;;;;;;;29.94;31.95;93984.06;5017770;28;9019;-56
2023/06/11 03:20:19;;;;;;;;;;;;;;;29.94;32.63;93984.06;5014157;28;8597;-56
2023/06/11 03:22:46;;;;;;;;;;;;;;;29.95;33.02;93988.31;5014303;28;8983;-56
2023/06/11 03:25:30;;;;;;;;;;;;;;;29.95;32.63;93982.75;5004653;28;8422;-56
2023/06/11 03:27:57;;;;;;;;;;;;;;;29.95;31.92;93977.22;5027524;28;7136;-56
2023/06/11 03:30:26;;;;;;;;;;;;;;;29.96;32.96;93977.97;5020540;28;8750;-56
2023/06/11 03:32:53;;;;;;;;;;;;;;;29.95;32.05;93979.97;5020779;28;9450;-56
2023/06/11 03:35:23;;;;;;;;;;;;;;;29.94;32.84;93975.75;5023631;28;7106;-56
2023/06/11 03:38:01;;;;;;;;;;;;;;;29.94;32.96;93980.53;5008385;28;6999;-56
2023/06/11 03:41:00;;;;;;;;;;;;;;;29.94;31.72;93975.75;5008741;28;9408;-56
2023/06/11 03:43:36;;;;;;;;;;;;;;;29.91;32.47;93976.84;5011318;28;7435;-56
2023/06/11 03:46:04;;;;;;;;;;;;;;;29.88;32.57;93972.41;5003132;28;7384;-56
2023/06/11 03:49:02;;;;;;;;;;;;;;;29.90;33.17;93983.69;5026346;28;7064;-56
2023/06/11 03:51:48;;;;;;;;;;;;;;;29.88;31.87;93983.50;4995651;28;7035;-56
2023/06/11 03:54:30;;;;;;;;;;;;;;;29.88;31.96;93977.19;5000342;28;7049;-56
2023/06/11 03:57:06;;;;;;;;;;;;;;;29.87;32.58;93982.00;4985182;28;7359;-56
2023/06/11 03:59:51;;;;;;;;;;;;;;;29.87;32.84;93982.00;4986689;28;7059;-56
2023/06/11 04:02:28;;;;;;;;;;;;;;;29.87;32.24;93993.09;4968244;28;8600;-56
2023/06/11 04:04:55;;;;;;;;;;;;;;;29.85;32.38;93984.59;5002045;28;7063;-56
2023/06/11 04:07:24;;;;;;;;;;;;;;;29.86;32.05;93985.31;4987279;28;7268;-56
2023/06/11 04:10:24;;;;;;;;;;;;;;;29.85;31.95;93984.59;4981873;28;9210;-56
2023/06/11 04:13:25;;;;;;;;;;;;;;;29.84;32.02;93982.38;4964397;28;7053;-55
2023/06/11 04:15:55;;;;;;;;;;;;;;;29.83;32.17;93992.72;4979951;28;7057;-56
2023/06/11 04:18:21;;;;;;;;;;;;;;;29.83;32.97;93986.41;4964505;28;7280;-56
2023/06/11 04:20:50;;;;;;;;;;;;;;;29.83;32.25;93984.38;4982017;28;8770;-56
2023/06/11 04:23:16;;;;;;;;;;;;;;;29.82;32.44;93985.66;4963851;28;7350;-56
2023/06/11 04:25:55;;;;;;;;;;;;;;;29.83;32.50;93989.94;4955606;28;8464;-56
2023/06/11 04:28:44;;;;;;;;;;;;;;;29.80;32.06;93991.03;4971728;28;8679;-55
2023/06/11 04:31:19;;;;;;;;;;;;;;;29.81;32.13;93989.75;4967102;28;7250;-56
2023/06/11 04:33:46;;;;;;;;;;;;;;;29.80;32.83;93991.78;4973004;28;8853;-56
2023/06/11 04:36:12;;;;;;;;;;;;;;;29.81;32.51;93995.28;4955471;28;8816;-56
2023/06/11 04:38:44;;;;;;;;;;;;;;;29.80;32.26;93993.78;4970458;28;9064;-56
2023/06/11 04:41:13;;;;;;;;;;;;;;;29.78;32.84;93993.59;4971411;28;7115;-56
2023/06/11 04:43:41;;;;;;;;;;;;;;;29.79;32.94;93997.88;4971776;28;7273;-56
2023/06/11 04:46:27;;;;;;;;;;;;;;;29.75;33.29;94003.03;4954812;28;7267;-56
2023/06/11 04:49:04;;;;;;;;;;;;;;;29.72;33.01;93999.28;4991156;28;7042;-56
2023/06/11 04:51:32;;;;;;;;;;;;;;;29.75;33.34;93997.50;5027090;28;9000;-56
2023/06/11 04:54:07;;;;;;;;;;;;;;;29.77;33.05;94000.44;5011872;28;7248;-56
2023/06/11 04:56:51;;;;;;;;;;;;;;;29.77;32.80;93994.91;5009861;28;7208;-56
2023/06/11 04:59:28;;;;;;;;;;;;;;;29.77;32.98;94000.44;5008187;28;9337;-56
2023/06/11 05:02:02;;;;;;;;;;;;;;;29.75;32.68;93997.50;5023255;28;7255;-56
2023/06/11 05:04:37;;;;;;;;;;;;;;;29.74;32.54;94007.81;5021903;28;7604;-56
2023/06/11 05:07:23;;;;;;;;;;;;;;;29.76;33.36;94004.50;5019046;28;9323;-56
2023/06/11 05:10:01;;;;;;;;;;;;;;;29.74;32.45;94005.06;5010370;28;9095;-56
2023/06/11 05:12:40;;;;;;;;;;;;;;;29.76;33.26;93999.69;5003823;28;7208;-56
2023/06/11 05:15:08;;;;;;;;;;;;;;;29.79;33.04;93997.88;5010610;28;9500;-56
2023/06/11 05:17:51;;;;;;;;;;;;;;;29.78;32.41;93997.13;5003745;28;7027;-56
2023/06/11 05:20:25;;;;;;;;;;;;;;;29.77;33.06;93990.13;5009129;28;7022;-56
2023/06/11 05:23:03;;;;;;;;;;;;;;;29.80;33.40;93993.78;5009500;28;7144;-56
2023/06/11 05:25:30;;;;;;;;;;;;;;;29.83;33.22;93997.50;5007104;28;7031;-56
2023/06/11 05:28:03;;;;;;;;;;;;;;;29.82;32.80;94007.84;5001926;28;7463;-56
2023/06/11 05:30:36;;;;;;;;;;;;;;;29.82;32.99;94004.34;4999637;28;8677;-56
2023/06/11 05:33:02;;;;;;;;;;;;;;;29.84;32.99;94004.53;5003615;28;9218;-56
2023/06/11 05:35:29;;;;;;;;;;;;;;;29.87;32.90;94014.53;5015683;28;8773;-56
2023/06/11 05:37:55;;;;;;;;;;;;;;;29.85;32.85;94001.22;5004582;28;7269;-56
2023/06/11 05:40:32;;;;;;;;;;;;;;;29.85;33.67;94003.25;5000112;28;7618;-56
2023/06/11 05:43:04;;;;;;;;;;;;;;;29.86;33.09;94002.72;5001545;28;9054;-56
2023/06/11 05:45:47;;;;;;;;;;;;;;;29.85;32.85;94006.00;5009511;28;9596;-56
2023/06/11 05:48:13;;;;;;;;;;;;;;;29.83;33.51;94003.78;5021000;28;7327;-56
2023/06/11 05:50:41;;;;;;;;;;;;;;;29.85;32.80;94008.78;5004122;28;9399;-56
2023/06/11 05:53:09;;;;;;;;;;;;;;;29.85;33.06;94011.56;5009745;28;7147;-56
2023/06/11 05:55:42;;;;;;;;;;;;;;;29.81;33.25;94017.47;5010157;28;7256;-56
2023/06/11 05:58:10;;;;;;;;;;;;;;;29.84;33.74;94021.91;5007345;28;9217;-56
2023/06/11 06:00:38;;;;;;;;;;;;;;;29.86;33.36;94024.91;5021323;28;7041;-56
2023/06/11 06:03:16;;;;;;;;;;;;;;;29.85;32.73;94028.94;5000051;28;9178;-56
2023/06/11 06:05:44;;;;;;;;;;;;;;;29.86;32.92;94029.69;4997581;28;9104;-56
2023/06/11 06:08:11;;;;;;;;;;;;;;;29.85;33.07;94026.16;5016934;28;7136;-56
2023/06/11 06:10:39;;;;;;;;;;;;;;;29.86;33.33;94035.97;5017650;28;9587;-57
2023/06/11 06:13:05;;;;;;;;;;;;;;;29.83;32.95;94025.22;5013918;28;7206;-56
2023/06/11 06:15:33;;;;;;;;;;;;;;;29.81;33.76;94023.00;5002515;28;9197;-56
2023/06/11 06:18:02;;;;;;;;;;;;;;;29.82;34.00;94021.00;4998280;28;7977;-56
2023/06/11 06:20:28;;;;;;;;;;;;;;;29.81;33.76;94034.09;4995556;28;8880;-56
2023/06/11 06:22:55;;;;;;;;;;;;;;;29.83;34.36;94030.78;5014372;28;7201;-57
2023/06/11 06:25:43;;;;;;;;;;;;;;;29.84;34.45;94038.53;5003110;28;7242;-57
2023/06/11 06:28:09;;;;;;;;;;;;;;;29.84;33.90;94038.53;5007683;28;7920;-56
2023/06/11 06:30:35;;;;;;;;;;;;;;;29.83;34.40;94037.06;4999978;28;7196;-56
2023/06/11 06:33:02;;;;;;;;;;;;;;;29.83;33.63;94037.06;5001092;28;7218;-57
2023/06/11 06:35:36;;;;;;;;;;;;;;;29.82;34.15;94038.34;4998983;28;9068;-56
2023/06/11 06:38:02;;;;;;;;;;;;;;;29.80;34.09;94036.13;5001389;28;7292;-56
2023/06/11 06:40:37;;;;;;;;;;;;;;;29.84;34.34;94044.09;5018831;28;7083;-56
2023/06/11 06:43:20;;;;;;;;;;;;;;;29.85;34.28;94048.34;5008224;28;8825;-56
2023/06/11 06:46:17;;;;;;;;;;;;;;;29.84;34.56;94049.63;5007923;28;7383;-56
2023/06/11 06:48:51;;;;;;;;;;;;;;;29.85;34.24;94051.13;5020503;28;9138;-57
2023/06/11 06:51:52;;;;;;;;;;;;;;;29.86;33.81;94049.09;5008635;28;9238;-56
2023/06/11 06:54:22;;;;;;;;;;;;;;;29.84;34.50;94048.91;5024652;28;9233;-56
2023/06/11 06:56:58;;;;;;;;;;;;;;;29.85;34.64;94048.34;5023110;28;7366;-56
2023/06/11 06:59:33;;;;;;;;;;;;;;;29.86;34.93;94052.63;5002955;28;7054;-57
2023/06/11 07:02:05;;;;;;;;;;;;;;;29.86;34.39;94049.09;5009190;28;8343;-56
2023/06/11 07:04:34;;;;;;;;;;;;;;;29.87;34.60;94053.34;5012600;28;9346;-56
2023/06/11 07:07:10;;;;;;;;;;;;;;;29.86;34.18;94052.63;5011038;28;9044;-56
2023/06/11 07:09:35;;;;;;;;;;;;;;;29.88;34.48;94055.59;5011996;28;9408;-56
2023/06/11 07:12:06;;;;;;;;;;;;;;;29.86;33.96;94047.06;5029430;28;9109;-56
2023/06/11 07:14:42;;;;;;;;;;;;;;;29.89;34.39;94057.06;5007242;28;8724;-56
2023/06/11 07:17:08;;;;;;;;;;;;;;;29.90;35.10;94055.03;5020961;28;7057;-56
2023/06/11 07:19:35;;;;;;;;;;;;;;;29.90;34.56;94057.81;5009958;28;7048;-56
2023/06/11 07:22:10;;;;;;;;;;;;;;;29.91;34.08;94060.03;5020536;28;7299;-56
2023/06/11 07:24:36;;;;;;;;;;;;;;;29.91;34.25;94068.34;5006793;28;9547;-56
2023/06/11 07:27:07;;;;;;;;;;;;;;;29.93;37.24;94063.00;5011845;28;7495;-56
2023/06/11 07:29:51;;;;;;;;;;;;;;;29.95;37.35;94057.63;5025651;28;7386;-57
2023/06/11 07:32:24;;;;;;;;;;;;;;;29.97;38.01;94063.38;5022332;28;9131;-56
2023/06/11 07:35:24;;;;;;;;;;;;;;;29.98;36.39;94064.88;5003827;28;7040;-57
2023/06/11 07:37:58;;;;;;;;;;;;;;;29.97;36.92;94063.38;5005802;28;9058;-57
2023/06/11 07:40:24;;;;;;;;;;;;;;;29.97;36.32;94063.38;5015988;28;8160;-56
2023/06/11 07:43:22;;;;;;;;;;;;;;;29.98;36.13;94064.88;5006369;28;7197;-56
2023/06/11 07:46:05;;;;;;;;;;;;;;;29.97;37.07;94066.16;4954788;28;7043;-57
2023/06/11 07:48:34;;;;;;;;;;;;;;;29.97;36.82;94062.66;4948531;28;7173;-57
2023/06/11 07:51:02;;;;;;;;;;;;;;;29.98;36.62;94064.13;4959544;28;7388;-57
2023/06/11 07:53:28;;;;;;;;;;;;;;;29.98;36.77;94058.56;4967988;28;8233;-57
2023/06/11 07:55:56;;;;;;;;;;;;;;;29.98;36.57;94064.88;4959319;28;7182;-57
2023/06/11 07:58:32;;;;;;;;;;;;;;;30.00;37.04;94064.31;4943031;28;7196;-57
2023/06/11 08:00:58;;;;;;;;;;;;;;;30.00;36.69;94062.28;4945015;28;9049;-57
2023/06/11 08:03:30;;;;;;;;;;;;;;;30.02;36.87;94053.41;4950922;28;8200;-57
2023/06/11 08:06:04;;;;;;;;;;;;;;;29.98;36.47;94050.25;4959623;28;7259;-57
2023/06/11 08:08:30;;;;;;;;;;;;;;;30.00;36.18;94056.75;4964485;28;9456;-57
2023/06/11 08:10:56;;;;;;;;;;;;;;;30.00;36.71;94053.97;4950526;28;8731;-56
2023/06/11 08:13:23;;;;;;;;;;;;;;;29.98;36.03;94051.00;4942888;28;6988;-57
2023/06/11 08:15:51;;;;;;;;;;;;;;;30.02;36.67;94054.16;4960368;28;8472;-57
2023/06/11 08:18:17;;;;;;;;;;;;;;;30.03;36.32;94052.88;4966125;28;7237;-57
2023/06/11 08:20:43;;;;;;;;;;;;;;;30.01;35.96;94052.69;4960739;28;9569;-57
2023/06/11 08:23:09;;;;;;;;;;;;;;;30.00;36.18;94053.97;5014531;28;7212;-56
2023/06/11 08:25:40;;;;;;;;;;;;;;;30.03;36.24;94060.44;5015526;28;7035;-57
2023/06/11 08:28:07;;;;;;;;;;;;;;;30.03;36.52;94058.44;5000354;28;9488;-57
2023/06/11 08:30:33;;;;;;;;;;;;;;;30.03;37.01;94055.66;5007198;28;7314;-57
2023/06/11 08:32:59;;;;;;;;;;;;;;;30.04;36.59;94059.16;4999435;28;7112;-57
2023/06/11 08:35:30;;;;;;;;;;;;;;;30.04;35.94;94057.13;5008438;28;8396;-57
2023/06/11 08:37:58;;;;;;;;;;;;;;;30.02;36.20;94053.41;5009129;28;8638;-57
2023/06/11 08:40:27;;;;;;;;;;;;;;;30.05;36.00;94053.06;4999510;28;8936;-57
2023/06/11 08:42:54;;;;;;;;;;;;;;;30.05;36.48;94055.84;5008870;28;7263;-56
2023/06/11 08:45:23;;;;;;;;;;;;;;;30.06;36.35;94057.31;5022776;28;7197;-57
2023/06/11 08:47:55;;;;;;;;;;;;;;;30.06;36.36;94054.53;5014856;28;7225;-56
2023/06/11 08:50:24;;;;;;;;;;;;;;;30.04;36.24;94050.81;5001199;28;7347;-57
2023/06/11 08:52:53;;;;;;;;;;;;;;;30.02;35.82;94045.84;5001757;28;7577;-56
2023/06/11 08:55:21;;;;;;;;;;;;;;;30.03;36.15;94047.34;4995284;28;7261;-57
2023/06/11 08:57:51;;;;;;;;;;;;;;;30.01;35.83;94052.69;5009046;28;6860;-56
2023/06/11 09:00:17;;;;;;;;;;;;;;;30.03;36.86;94055.66;4997504;28;7303;-57
2023/06/11 09:02:46;;;;;;;;;;;;;;;30.04;36.01;94043.25;4993884;28;7068;-57
2023/06/11 09:05:13;;;;;;;;;;;;;;;30.04;35.87;94053.59;4996361;28;9067;-57
2023/06/11 09:07:52;;;;;;;;;;;;;;;30.05;36.69;94047.53;5003960;28;8258;-56
2023/06/11 09:10:20;;;;;;;;;;;;;;;30.07;35.64;94049.75;5004050;28;8830;-57
2023/06/11 09:12:50;;;;;;;;;;;;;;;30.05;35.77;94050.31;5020367;28;8104;-57
2023/06/11 09:15:28;;;;;;;;;;;;;;;30.07;35.85;94061.59;5002266;28;9019;-56
2023/06/11 09:18:04;;;;;;;;;;;;;;;30.05;36.36;94052.31;5008708;28;7140;-56
2023/06/11 09:20:30;;;;;;;;;;;;;;;30.06;36.16;94056.59;5001864;28;9114;-56
2023/06/11 09:22:58;;;;;;;;;;;;;;;30.04;36.71;94061.91;5008088;28;7021;-56
2023/06/11 09:25:33;;;;;;;;;;;;;;;30.04;36.89;94050.81;5004953;28;8209;-56
2023/06/11 09:28:05;;;;;;;;;;;;;;;30.07;36.39;94061.59;5015824;28;9442;-57
2023/06/11 09:30:33;;;;;;;;;;;;;;;30.07;36.21;94061.59;5003995;28;7187;-56
2023/06/11 09:33:35;;;;;;;;;;;;;;;30.08;36.35;94060.28;5024064;28;8354;-57
2023/06/11 09:36:09;;;;;;;;;;;;;;;30.05;36.08;94058.63;5016690;28;6999;-57
2023/06/11 09:38:36;;;;;;;;;;;;;;;30.08;36.49;94063.06;4999336;28;7038;-56
2023/06/11 09:41:07;;;;;;;;;;;;;;;30.08;36.29;94060.28;4988374;28;9157;-56
2023/06/11 09:43:43;;;;;;;;;;;;;;;30.08;36.27;94068.59;5000021;28;9030;-57
2023/06/11 09:46:20;;;;;;;;;;;;;;;30.08;36.59;94065.81;5002821;28;7047;-56
2023/06/11 09:49:02;;;;;;;;;;;;;;;30.07;37.02;94060.84;5014948;28;7040;-56
2023/06/11 09:51:29;;;;;;;;;;;;;;;30.08;36.83;94060.28;5014542;28;7702;-56
2023/06/11 09:54:26;;;;;;;;;;;;;;;30.09;36.90;94061.03;4998169;28;9060;-56
2023/06/11 09:56:52;;;;;;;;;;;;;;;30.08;36.75;94063.06;4938799;28;9015;-56
2023/06/11 09:59:57;;;;;;;;;;;;;;;30.07;35.90;94064.34;4939184;28;8919;-56
2023/06/11 10:02:23;;;;;;;;;;;;;;;30.08;35.98;94060.28;4938176;28;7063;-56
2023/06/11 10:05:11;;;;;;;;;;;;;;;30.10;35.78;94063.25;4918980;29;8724;-57
2023/06/11 10:08:05;;;;;;;;;;;;;;;30.11;36.30;94061.97;4932213;29;8852;-56
2023/06/11 10:10:38;;;;;;;;;;;;;;;30.10;36.52;94060.47;4931902;29;7109;-56
2023/06/11 10:13:27;;;;;;;;;;;;;;;30.13;36.02;94055.84;4918378;29;8499;-56
2023/06/11 10:16:19;;;;;;;;;;;;;;;30.16;36.87;94058.28;4915518;29;7020;-56
2023/06/11 10:18:46;;;;;;;;;;;;;;;30.16;36.25;94057.53;4926361;29;6948;-56
2023/06/11 10:21:12;;;;;;;;;;;;;;;30.16;36.49;94057.53;4912766;29;7223;-56
2023/06/11 10:24:06;;;;;;;;;;;;;;;30.13;37.16;94053.84;4918524;29;8407;-56
2023/06/11 10:26:41;;;;;;;;;;;;;;;30.10;37.10;94052.16;4916223;29;8881;-56
2023/06/11 10:29:10;;;;;;;;;;;;;;;30.14;36.47;94060.88;4917305;29;9032;-56
2023/06/11 10:32:18;;;;;;;;;;;;;;;30.15;37.47;94059.56;4917816;29;7267;-56
2023/06/11 10:34:57;;;;;;;;;;;;;;;30.16;36.27;94057.53;4937757;28;7130;-56
2023/06/11 10:37:35;;;;;;;;;;;;;;;30.17;37.11;94054.22;4934781;28;7244;-56
2023/06/11 10:40:18;;;;;;;;;;;;;;;30.19;36.49;94059.22;4953792;28;7068;-56
2023/06/11 10:43:34;;;;;;;;;;;;;;;30.19;37.14;94059.94;4953602;28;9034;-56
2023/06/11 10:46:18;;;;;;;;;;;;;;;30.25;36.77;94054.25;4896330;29;8945;-56
2023/06/11 10:48:53;;;;;;;;;;;;;;;30.24;36.75;94049.97;4879117;29;7248;-56
2023/06/11 10:51:36;;;;;;;;;;;;;;;30.23;36.52;94052.00;4896170;29;7227;-56
2023/06/11 10:54:37;;;;;;;;;;;;;;;30.22;37.00;94042.22;4896424;29;9485;-56
2023/06/11 10:57:13;;;;;;;;;;;;;;;30.20;36.55;94044.81;4873956;29;8914;-56
2023/06/11 10:59:41;;;;;;;;;;;;;;;30.25;36.86;94048.72;4871243;29;7280;-56
2023/06/11 11:02:13;;;;;;;;;;;;;;;30.26;36.66;94048.16;4875493;29;7248;-56
2023/06/11 11:04:53;;;;;;;;;;;;;;;30.25;35.93;94043.16;4872555;29;7240;-56
2023/06/11 11:07:19;;;;;;;;;;;;;;;30.25;35.92;94049.44;4872131;29;9032;-56
2023/06/11 11:09:47;;;;;;;;;;;;;;;30.27;36.06;94046.88;4890805;29;7037;-56
2023/06/11 11:12:20;;;;;;;;;;;;;;;30.27;37.15;94046.88;4934174;28;7223;-56
2023/06/11 11:15:04;;;;;;;;;;;;;;;30.27;37.21;94044.09;4918618;29;7379;-56
2023/06/11 11:17:32;;;;;;;;;;;;;;;30.27;36.65;94040.56;4933205;28;9646;-56
2023/06/11 11:20:17;;;;;;;;;;;;;;;30.29;36.41;94033.19;4932116;29;7078;-56
2023/06/11 11:22:52;;;;;;;;;;;;;;;30.28;36.63;94028.91;4940927;28;8665;-56
2023/06/11 11:25:21;;;;;;;;;;;;;;;30.31;36.41;94040.97;4939901;28;9620;-56
2023/06/11 11:27:52;;;;;;;;;;;;;;;30.29;36.03;94038.72;4929262;28;9190;-56
2023/06/11 11:30:19;;;;;;;;;;;;;;;30.32;36.30;94045.97;4939852;28;7428;-56
2023/06/11 11:32:45;;;;;;;;;;;;;;;30.34;36.11;94037.09;4944193;28;7188;-56
2023/06/11 11:35:16;;;;;;;;;;;;;;;30.35;37.69;94042.09;5001650;28;6873;-56
2023/06/11 11:37:45;;;;;;;;;;;;;;;30.33;36.40;94038.38;5016728;28;7034;-56
2023/06/11 11:40:12;;;;;;;;;;;;;;;30.31;36.85;94030.63;5002308;28;7291;-56
2023/06/11 11:42:47;;;;;;;;;;;;;;;30.31;36.63;94029.88;5004740;28;7187;-56
2023/06/11 11:45:14;;;;;;;;;;;;;;;30.30;36.71;94029.09;5019885;28;7211;-56
2023/06/11 11:47:55;;;;;;;;;;;;;;;30.30;37.34;94020.78;5022238;28;7624;-56
2023/06/11 11:51:04;;;;;;;;;;;;;;;30.34;36.83;94035.06;5020591;28;9640;-56
2023/06/11 11:53:34;;;;;;;;;;;;;;;30.37;36.69;94030.44;5004254;28;9358;-56
2023/06/11 11:56:06;;;;;;;;;;;;;;;30.37;37.25;94020.09;5009696;28;7224;-55
2023/06/11 11:58:42;;;;;;;;;;;;;;;30.39;37.44;94022.31;5009571;28;7355;-56
2023/06/11 12:01:26;;;;;;;;;;;;;;;30.38;37.63;94013.22;5012124;28;7563;-57
2023/06/11 12:04:14;;;;;;;;;;;;;;;30.37;37.82;94017.31;5005827;28;7041;-56
2023/06/11 12:06:46;;;;;;;;;;;;;;;30.38;36.94;94016.00;5026753;28;8773;-56
2023/06/11 12:09:25;;;;;;;;;;;;;;;30.38;37.88;94013.22;5008649;28;7311;-56
2023/06/11 12:11:55;;;;;;;;;;;;;;;30.39;36.83;94003.63;5026175;28;7050;-56
2023/06/11 12:14:30;;;;;;;;;;;;;;;30.44;36.91;94002.72;5003348;28;7272;-56
2023/06/11 12:17:04;;;;;;;;;;;;;;;30.49;36.68;93999.00;5005924;28;10061;-55
2023/06/11 12:19:37;;;;;;;;;;;;;;;30.51;37.49;93998.47;5011968;28;7680;-56
2023/06/11 12:22:05;;;;;;;;;;;;;;;30.50;37.13;94000.50;5007575;28;7303;-56
2023/06/11 12:24:52;;;;;;;;;;;;;;;30.51;36.89;93998.47;5025859;28;6986;-56
2023/06/11 12:27:32;;;;;;;;;;;;;;;30.48;37.87;94000.31;5019021;28;9016;-56
2023/06/11 12:29:59;;;;;;;;;;;;;;;30.52;36.68;94000.69;5019262;28;7052;-56
2023/06/11 12:32:25;;;;;;;;;;;;;;;30.54;36.26;93998.09;5019315;28;7064;-56
2023/06/11 12:34:53;;;;;;;;;;;;;;;30.56;36.17;93985.72;5002842;28;7111;-56
2023/06/11 12:37:24;;;;;;;;;;;;;;;30.53;37.01;93991.09;5010205;28;9039;-56
2023/06/11 12:39:51;;;;;;;;;;;;;;;30.52;37.03;93997.91;5002745;28;7272;-56
2023/06/11 12:42:20;;;;;;;;;;;;;;;30.49;37.00;93995.50;4998225;28;7229;-56
2023/06/11 12:44:50;;;;;;;;;;;;;;;30.52;36.16;93995.13;4999060;28;8459;-56
2023/06/11 12:47:17;;;;;;;;;;;;;;;30.57;36.92;93989.97;4999773;28;7287;-56
2023/06/11 12:49:49;;;;;;;;;;;;;;;30.55;36.67;93990.53;5006567;28;7255;-56
2023/06/11 12:52:15;;;;;;;;;;;;;;;30.56;36.21;93986.44;4989293;28;9028;-56
2023/06/11 12:54:52;;;;;;;;;;;;;;;30.59;35.79;93979.78;5006886;28;7005;-56
2023/06/11 12:57:37;;;;;;;;;;;;;;;30.60;35.83;93977.75;5017817;28;8429;-56
2023/06/11 13:00:14;;;;;;;;;;;;;;;30.60;36.42;93983.31;5020036;28;7267;-56
2023/06/11 13:02:43;;;;;;;;;;;;;;;30.61;36.00;93968.13;5020537;28;9508;-56
2023/06/11 13:05:30;;;;;;;;;;;;;;;30.63;35.80;93973.84;5006556;28;7465;-56
2023/06/11 13:08:28;;;;;;;;;;;;;;;30.64;35.69;93967.03;5009946;28;7296;-56
2023/06/11 13:11:10;;;;;;;;;;;;;;;30.61;35.00;93968.88;4984301;28;7217;-56
2023/06/11 13:13:48;;;;;;;;;;;;;;;30.64;34.49;93970.53;4972328;28;7470;-56
2023/06/11 13:16:35;;;;;;;;;;;;;;;30.65;35.22;93962.94;4985879;28;7599;-56
2023/06/11 13:19:02;;;;;;;;;;;;;;;30.66;35.32;93956.09;4989101;28;7007;-56
2023/06/11 13:21:44;;;;;;;;;;;;;;;30.64;36.01;93955.91;4988301;28;7580;-56
2023/06/11 13:24:23;;;;;;;;;;;;;;;30.64;34.93;93958.69;4967527;28;7324;-56
2023/06/11 13:27:12;;;;;;;;;;;;;;;30.65;35.20;93958.13;4972600;28;7195;-56
2023/06/11 13:30:09;;;;;;;;;;;;;;;30.67;35.53;93946.50;4984842;28;9370;-56
2023/06/11 13:32:44;;;;;;;;;;;;;;;30.67;35.55;93952.03;4984433;28;7520;-56
2023/06/11 13:35:20;;;;;;;;;;;;;;;30.65;35.84;93935.19;4987241;28;7444;-56
2023/06/11 13:37:59;;;;;;;;;;;;;;;30.66;35.53;93942.97;4965351;28;7081;-56
2023/06/11 13:41:12;;;;;;;;;;;;;;;30.70;35.17;93931.47;4982892;28;7308;-56